Terminal Aerodrome Forecast
Issued by NWS Jacksonville, FL

Home | Current Version | Previous Version | Text Only | Print | Product List | Glossary On
Versions: 1 2 3 4 5 6 7 8 9 10 11 12 13 14 15 16 17 18 19
000
FTUS42 KJAX 301416 AAA
TAFSSI
TAF AMD
KSSI 301416Z 3014/3112 31010KT P6SM FEW020 SCT250
     FM301800 33010KT P6SM FEW250
     FM310000 35003KT P6SM FEW250=

USA.gov is the U.S. government's official web portal to all federal, state and local government web resources and services.